Afton, New York
Current Conditions -  °F | °C
As of 3:16 PM on Wednesday 26 Nov 2014 (Local Time) from KBGM Reporting Station
Moderate Snow Moderate Snow  
Wind Chill: 21°   Ceiling: 700
Heat Index: 30°   Visibility: 0.5mi
Dew Point: 28°   Wind: 12mph
Humidity: 92%   Direction: 360°N
Pressure: 29.96"   Gusts: NA
Location:  42.23°N, 75.53°W
Report Text: KBGM 262016Z 36010KT 1/2SM SN FZFG VV007 M01/M02 A2996 RMK AO2 P0003 T10111022 RVRNO
Loading
Personal Weather Stations






























Interactive Weather Map New forecast layout! Learn more

10-Day Weather Forecast

Advertisements
Track Severe Weather on mobile